sensor_id;sensor_type;location;lat;lon;timestamp;temperature;humidity
10883;DHT22;5494;51.796;10.952;2024-02-04T00:01:14;10.30;99.90
10883;DHT22;5494;51.796;10.952;2024-02-04T00:03:42;10.10;1.00
10883;DHT22;5494;51.796;10.952;2024-02-04T00:06:10;10.00;1.00
10883;DHT22;5494;51.796;10.952;2024-02-04T00:08:40;10.00;1.00
10883;DHT22;5494;51.796;10.952;2024-02-04T00:11:08;10.00;1.00
10883;DHT22;5494;51.796;10.952;2024-02-04T00:13:43;10.00;1.00
10883;DHT22;5494;51.796;10.952;2024-02-04T00:16:11;10.00;1.00
10883;DHT22;5494;51.796;10.952;2024-02-04T00:18:39;9.90;1.00
10883;DHT22;5494;51.796;10.952;2024-02-04T00:21:08;9.90;1.00
10883;DHT22;5494;51.796;10.952;2024-02-04T00:23:36;9.80;1.00
10883;DHT22;5494;51.796;10.952;2024-02-04T00:26:06;9.90;1.00
10883;DHT22;5494;51.796;10.952;2024-02-04T00:28:33;9.90;1.00
10883;DHT22;5494;51.796;10.952;2024-02-04T00:31:00;10.00;1.00
10883;DHT22;5494;51.796;10.952;2024-02-04T00:33:28;10.00;1.00
10883;DHT22;5494;51.796;10.952;2024-02-04T00:35:57;10.00;1.00
10883;DHT22;5494;51.796;10.952;2024-02-04T00:38:25;9.90;77.80
10883;DHT22;5494;51.796;10.952;2024-02-04T00:40:52;9.80;99.90
10883;DHT22;5494;51.796;10.952;2024-02-04T00:43:22;9.70;99.90
10883;DHT22;5494;51.796;10.952;2024-02-04T00:45:50;9.60;99.90
10883;DHT22;5494;51.796;10.952;2024-02-04T00:48:18;9.60;99.90
10883;DHT22;5494;51.796;10.952;2024-02-04T00:50:46;9.60;99.90
10883;DHT22;5494;51.796;10.952;2024-02-04T00:53:15;9.50;99.90
10883;DHT22;5494;51.796;10.952;2024-02-04T00:55:43;9.40;99.90
10883;DHT22;5494;51.796;10.952;2024-02-04T00:58:11;9.40;99.90
10883;DHT22;5494;51.796;10.952;2024-02-04T01:00:40;9.40;99.90
10883;DHT22;5494;51.796;10.952;2024-02-04T01:03:08;9.40;99.90
10883;DHT22;5494;51.796;10.952;2024-02-04T01:05:37;9.40;99.90
10883;DHT22;5494;51.796;10.952;2024-02-04T01:08:05;9.50;99.90
10883;DHT22;5494;51.796;10.952;2024-02-04T01:10:33;9.50;99.90
10883;DHT22;5494;51.796;10.952;2024-02-04T01:13:02;9.50;99.90
10883;DHT22;5494;51.796;10.952;2024-02-04T01:15:31;9.50;99.90
10883;DHT22;5494;51.796;10.952;2024-02-04T01:18:00;9.50;99.90
10883;DHT22;5494;51.796;10.952;2024-02-04T01:20:28;9.50;99.90
10883;DHT22;5494;51.796;10.952;2024-02-04T01:22:56;9.50;99.90
10883;DHT22;5494;51.796;10.952;2024-02-04T01:25:24;9.50;99.90
10883;DHT22;5494;51.796;10.952;2024-02-04T01:27:52;9.40;99.90
10883;DHT22;5494;51.796;10.952;2024-02-04T01:30:21;9.50;99.90
10883;DHT22;5494;51.796;10.952;2024-02-04T01:32:49;9.60;99.90
10883;DHT22;5494;51.796;10.952;2024-02-04T01:35:18;9.50;99.90
10883;DHT22;5494;51.796;10.952;2024-02-04T01:37:46;9.60;99.90
10883;DHT22;5494;51.796;10.952;2024-02-04T01:40:15;9.60;99.90
10883;DHT22;5494;51.796;10.952;2024-02-04T01:42:45;9.50;99.90
10883;DHT22;5494;51.796;10.952;2024-02-04T01:45:13;9.50;99.90
10883;DHT22;5494;51.796;10.952;2024-02-04T01:47:41;9.50;7.70
10883;DHT22;5494;51.796;10.952;2024-02-04T01:50:10;9.50;1.00
10883;DHT22;5494;51.796;10.952;2024-02-04T01:52:41;9.40;1.00
10883;DHT22;5494;51.796;10.952;2024-02-04T01:55:12;9.30;1.00
10883;DHT22;5494;51.796;10.952;2024-02-04T01:57:41;9.30;1.00
10883;DHT22;5494;51.796;10.952;2024-02-04T02:00:10;9.30;1.00
10883;DHT22;5494;51.796;10.952;2024-02-04T02:02:41;9.30;1.00
10883;DHT22;5494;51.796;10.952;2024-02-04T02:05:09;9.30;1.00
10883;DHT22;5494;51.796;10.952;2024-02-04T02:07:37;9.30;1.00
10883;DHT22;5494;51.796;10.952;2024-02-04T02:10:07;9.30;1.00
10883;DHT22;5494;51.796;10.952;2024-02-04T02:12:42;9.40;1.00
10883;DHT22;5494;51.796;10.952;2024-02-04T02:15:21;9.40;1.00
10883;DHT22;5494;51.796;10.952;2024-02-04T02:17:57;9.50;1.00
10883;DHT22;5494;51.796;10.952;2024-02-04T02:20:31;9.50;1.00
10883;DHT22;5494;51.796;10.952;2024-02-04T02:23:10;9.60;1.00
10883;DHT22;5494;51.796;10.952;2024-02-04T02:25:45;9.70;1.00
10883;DHT22;5494;51.796;10.952;2024-02-04T02:28:14;9.70;1.00
10883;DHT22;5494;51.796;10.952;2024-02-04T02:30:42;9.70;1.00
10883;DHT22;5494;51.796;10.952;2024-02-04T02:33:10;9.70;1.00
10883;DHT22;5494;51.796;10.952;2024-02-04T02:35:40;9.70;1.00
10883;DHT22;5494;51.796;10.952;2024-02-04T02:38:13;9.80;1.00
10883;DHT22;5494;51.796;10.952;2024-02-04T02:40:56;9.80;1.00
10883;DHT22;5494;51.796;10.952;2024-02-04T02:43:27;9.80;1.00
10883;DHT22;5494;51.796;10.952;2024-02-04T02:45:57;9.80;1.00
10883;DHT22;5494;51.796;10.952;2024-02-04T02:48:26;9.80;1.00
10883;DHT22;5494;51.796;10.952;2024-02-04T02:50:55;9.80;1.00
10883;DHT22;5494;51.796;10.952;2024-02-04T02:53:23;9.60;1.00
10883;DHT22;5494;51.796;10.952;2024-02-04T02:55:53;9.70;1.00
10883;DHT22;5494;51.796;10.952;2024-02-04T02:58:21;9.70;1.00
10883;DHT22;5494;51.796;10.952;2024-02-04T03:00:50;9.70;1.00
10883;DHT22;5494;51.796;10.952;2024-02-04T03:03:18;9.70;1.00
10883;DHT22;5494;51.796;10.952;2024-02-04T03:05:47;9.80;1.00
10883;DHT22;5494;51.796;10.952;2024-02-04T03:08:16;9.90;1.00
10883;DHT22;5494;51.796;10.952;2024-02-04T03:10:44;9.90;1.00
10883;DHT22;5494;51.796;10.952;2024-02-04T03:13:13;10.00;1.00
10883;DHT22;5494;51.796;10.952;2024-02-04T03:15:41;10.00;1.00
10883;DHT22;5494;51.796;10.952;2024-02-04T03:18:10;10.00;1.00
10883;DHT22;5494;51.796;10.952;2024-02-04T03:20:37;10.00;1.00
10883;DHT22;5494;51.796;10.952;2024-02-04T03:23:05;9.90;1.00
10883;DHT22;5494;51.796;10.952;2024-02-04T03:25:33;10.00;1.00
10883;DHT22;5494;51.796;10.952;2024-02-04T03:28:01;10.00;1.00
10883;DHT22;5494;51.796;10.952;2024-02-04T03:30:31;10.00;1.00
10883;DHT22;5494;51.796;10.952;2024-02-04T03:32:59;10.00;1.00
10883;DHT22;5494;51.796;10.952;2024-02-04T03:35:27;10.00;1.00
10883;DHT22;5494;51.796;10.952;2024-02-04T03:37:56;10.00;1.00
10883;DHT22;5494;51.796;10.952;2024-02-04T03:40:24;10.00;1.00
10883;DHT22;5494;51.796;10.952;2024-02-04T03:42:53;10.10;1.00
10883;DHT22;5494;51.796;10.952;2024-02-04T03:45:21;10.10;1.00
10883;DHT22;5494;51.796;10.952;2024-02-04T03:47:50;10.10;1.00
10883;DHT22;5494;51.796;10.952;2024-02-04T03:50:22;10.00;1.00
10883;DHT22;5494;51.796;10.952;2024-02-04T03:52:50;10.00;1.00
10883;DHT22;5494;51.796;10.952;2024-02-04T03:55:20;10.00;1.00
10883;DHT22;5494;51.796;10.952;2024-02-04T03:57:48;10.00;1.00
10883;DHT22;5494;51.796;10.952;2024-02-04T04:00:16;10.00;1.00
10883;DHT22;5494;51.796;10.952;2024-02-04T04:02:44;10.00;1.00
10883;DHT22;5494;51.796;10.952;2024-02-04T04:05:14;10.00;1.00
10883;DHT22;5494;51.796;10.952;2024-02-04T04:07:42;10.00;1.00
10883;DHT22;5494;51.796;10.952;2024-02-04T04:10:10;10.00;1.00
10883;DHT22;5494;51.796;10.952;2024-02-04T04:12:38;10.00;6.30
10883;DHT22;5494;51.796;10.952;2024-02-04T04:15:07;10.00;1.00
10883;DHT22;5494;51.796;10.952;2024-02-04T04:17:35;10.10;1.00
10883;DHT22;5494;51.796;10.952;2024-02-04T04:20:04;10.00;1.00
10883;DHT22;5494;51.796;10.952;2024-02-04T04:22:38;10.00;1.00
10883;DHT22;5494;51.796;10.952;2024-02-04T04:25:08;10.00;25.10
10883;DHT22;5494;51.796;10.952;2024-02-04T04:27:37;9.90;35.50
10883;DHT22;5494;51.796;10.952;2024-02-04T04:30:06;10.00;53.30
10883;DHT22;5494;51.796;10.952;2024-02-04T04:32:35;10.20;1.00
10883;DHT22;5494;51.796;10.952;2024-02-04T04:35:04;10.30;1.00
10883;DHT22;5494;51.796;10.952;2024-02-04T04:37:32;10.20;1.00
10883;DHT22;5494;51.796;10.952;2024-02-04T04:40:01;10.20;1.00
10883;DHT22;5494;51.796;10.952;2024-02-04T04:42:29;10.20;1.00
10883;DHT22;5494;51.796;10.952;2024-02-04T04:44:58;10.10;1.00
10883;DHT22;5494;51.796;10.952;2024-02-04T04:47:26;10.00;1.00
10883;DHT22;5494;51.796;10.952;2024-02-04T04:49:54;10.00;1.00
10883;DHT22;5494;51.796;10.952;2024-02-04T04:52:22;10.10;1.00
10883;DHT22;5494;51.796;10.952;2024-02-04T04:54:50;10.10;1.00
10883;DHT22;5494;51.796;10.952;2024-02-04T04:57:19;10.10;1.00
10883;DHT22;5494;51.796;10.952;2024-02-04T04:59:50;10.00;1.00
10883;DHT22;5494;51.796;10.952;2024-02-04T05:02:18;10.10;1.00
10883;DHT22;5494;51.796;10.952;2024-02-04T05:04:46;10.00;1.00
10883;DHT22;5494;51.796;10.952;2024-02-04T05:07:15;10.00;1.00
10883;DHT22;5494;51.796;10.952;2024-02-04T05:09:43;10.00;1.00
10883;DHT22;5494;51.796;10.952;2024-02-04T05:12:12;10.00;1.00
10883;DHT22;5494;51.796;10.952;2024-02-04T05:14:41;10.10;1.00
10883;DHT22;5494;51.796;10.952;2024-02-04T05:17:09;10.20;1.00
10883;DHT22;5494;51.796;10.952;2024-02-04T05:19:37;10.20;1.00
10883;DHT22;5494;51.796;10.952;2024-02-04T05:22:05;10.30;1.00
10883;DHT22;5494;51.796;10.952;2024-02-04T05:24:33;10.40;1.00
10883;DHT22;5494;51.796;10.952;2024-02-04T05:27:01;10.40;1.00
10883;DHT22;5494;51.796;10.952;2024-02-04T05:29:30;10.30;1.00
10883;DHT22;5494;51.796;10.952;2024-02-04T05:32:00;10.20;1.00
10883;DHT22;5494;51.796;10.952;2024-02-04T05:34:28;10.20;1.00
10883;DHT22;5494;51.796;10.952;2024-02-04T05:36:57;10.10;1.00
10883;DHT22;5494;51.796;10.952;2024-02-04T05:39:25;10.20;1.00
10883;DHT22;5494;51.796;10.952;2024-02-04T05:41:53;10.30;1.00
10883;DHT22;5494;51.796;10.952;2024-02-04T05:44:21;10.30;1.00
10883;DHT22;5494;51.796;10.952;2024-02-04T05:46:49;10.20;8.40
10883;DHT22;5494;51.796;10.952;2024-02-04T05:49:19;10.30;80.00
10883;DHT22;5494;51.796;10.952;2024-02-04T05:51:47;10.20;99.90
10883;DHT22;5494;51.796;10.952;2024-02-04T05:54:15;10.20;82.20
10883;DHT22;5494;51.796;10.952;2024-02-04T05:56:43;10.20;1.00
10883;DHT22;5494;51.796;10.952;2024-02-04T05:59:11;10.30;1.00
10883;DHT22;5494;51.796;10.952;2024-02-04T06:01:40;10.40;1.00
10883;DHT22;5494;51.796;10.952;2024-02-04T06:04:09;10.40;1.00
10883;DHT22;5494;51.796;10.952;2024-02-04T06:06:38;10.40;1.00
10883;DHT22;5494;51.796;10.952;2024-02-04T06:09:06;10.40;1.00
10883;DHT22;5494;51.796;10.952;2024-02-04T06:11:35;10.50;1.00
10883;DHT22;5494;51.796;10.952;2024-02-04T06:14:04;10.50;1.00
10883;DHT22;5494;51.796;10.952;2024-02-04T06:16:32;10.40;1.00
10883;DHT22;5494;51.796;10.952;2024-02-04T06:19:01;10.40;99.90
10883;DHT22;5494;51.796;10.952;2024-02-04T06:21:29;10.30;99.90
10883;DHT22;5494;51.796;10.952;2024-02-04T06:23:58;10.30;99.90
10883;DHT22;5494;51.796;10.952;2024-02-04T06:26:26;10.30;99.90
10883;DHT22;5494;51.796;10.952;2024-02-04T06:28:54;10.20;40.40
10883;DHT22;5494;51.796;10.952;2024-02-04T06:31:22;10.30;1.00
10883;DHT22;5494;51.796;10.952;2024-02-04T06:33:50;10.30;1.00
10883;DHT22;5494;51.796;10.952;2024-02-04T06:36:18;10.30;1.00
10883;DHT22;5494;51.796;10.952;2024-02-04T06:38:46;10.20;1.00
10883;DHT22;5494;51.796;10.952;2024-02-04T06:41:15;10.20;1.00
10883;DHT22;5494;51.796;10.952;2024-02-04T06:43:43;10.20;1.00
10883;DHT22;5494;51.796;10.952;2024-02-04T06:46:13;10.20;1.00
10883;DHT22;5494;51.796;10.952;2024-02-04T06:48:41;10.10;99.90
10883;DHT22;5494;51.796;10.952;2024-02-04T06:51:09;10.10;99.90
10883;DHT22;5494;51.796;10.952;2024-02-04T06:53:37;10.10;99.90
10883;DHT22;5494;51.796;10.952;2024-02-04T06:56:05;10.10;99.90
10883;DHT22;5494;51.796;10.952;2024-02-04T06:58:37;10.00;99.90
10883;DHT22;5494;51.796;10.952;2024-02-04T07:01:05;9.90;99.90
10883;DHT22;5494;51.796;10.952;2024-02-04T07:03:33;10.00;99.90
10883;DHT22;5494;51.796;10.952;2024-02-04T07:06:01;9.90;99.90
10883;DHT22;5494;51.796;10.952;2024-02-04T07:08:30;9.90;60.00
10883;DHT22;5494;51.796;10.952;2024-02-04T07:10:58;9.90;1.00
10883;DHT22;5494;51.796;10.952;2024-02-04T07:13:26;10.00;1.00
10883;DHT22;5494;51.796;10.952;2024-02-04T07:15:55;9.90;1.00
10883;DHT22;5494;51.796;10.952;2024-02-04T07:18:24;10.00;1.00
10883;DHT22;5494;51.796;10.952;2024-02-04T07:20:52;10.00;99.90
10883;DHT22;5494;51.796;10.952;2024-02-04T07:23:20;10.10;99.90
10883;DHT22;5494;51.796;10.952;2024-02-04T07:25:48;10.20;99.90
10883;DHT22;5494;51.796;10.952;2024-02-04T07:28:18;10.20;1.00
10883;DHT22;5494;51.796;10.952;2024-02-04T07:30:46;10.20;1.00
10883;DHT22;5494;51.796;10.952;2024-02-04T07:33:15;10.20;1.00
10883;DHT22;5494;51.796;10.952;2024-02-04T07:35:43;10.30;1.00
10883;DHT22;5494;51.796;10.952;2024-02-04T07:38:11;10.30;1.00
10883;DHT22;5494;51.796;10.952;2024-02-04T07:40:39;10.30;1.00
10883;DHT22;5494;51.796;10.952;2024-02-04T07:43:07;10.30;1.00
10883;DHT22;5494;51.796;10.952;2024-02-04T07:45:36;10.40;99.90
10883;DHT22;5494;51.796;10.952;2024-02-04T07:48:05;10.40;1.00
10883;DHT22;5494;51.796;10.952;2024-02-04T07:50:35;10.40;1.00
10883;DHT22;5494;51.796;10.952;2024-02-04T07:53:03;10.40;29.50
10883;DHT22;5494;51.796;10.952;2024-02-04T07:55:31;10.30;99.90
10883;DHT22;5494;51.796;10.952;2024-02-04T07:57:59;10.30;99.90
10883;DHT22;5494;51.796;10.952;2024-02-04T08:00:27;10.20;99.90
10883;DHT22;5494;51.796;10.952;2024-02-04T08:02:55;10.20;99.90
10883;DHT22;5494;51.796;10.952;2024-02-04T08:05:23;10.10;99.90
10883;DHT22;5494;51.796;10.952;2024-02-04T08:07:52;10.10;99.90
10883;DHT22;5494;51.796;10.952;2024-02-04T08:10:21;10.10;99.90
10883;DHT22;5494;51.796;10.952;2024-02-04T08:12:49;10.10;1.00
10883;DHT22;5494;51.796;10.952;2024-02-04T08:15:19;10.20;99.90
10883;DHT22;5494;51.796;10.952;2024-02-04T08:17:47;10.30;1.00
10883;DHT22;5494;51.796;10.952;2024-02-04T08:20:17;10.30;1.00
10883;DHT22;5494;51.796;10.952;2024-02-04T08:22:45;10.40;99.90
10883;DHT22;5494;51.796;10.952;2024-02-04T08:25:14;10.40;99.90
10883;DHT22;5494;51.796;10.952;2024-02-04T08:27:43;10.50;99.90
10883;DHT22;5494;51.796;10.952;2024-02-04T08:30:12;10.50;99.90
10883;DHT22;5494;51.796;10.952;2024-02-04T08:32:41;10.50;90.10
10883;DHT22;5494;51.796;10.952;2024-02-04T08:35:09;10.60;1.00
10883;DHT22;5494;51.796;10.952;2024-02-04T08:37:37;10.70;1.00
10883;DHT22;5494;51.796;10.952;2024-02-04T08:40:06;10.70;99.90
10883;DHT22;5494;51.796;10.952;2024-02-04T08:42:37;10.70;99.90
10883;DHT22;5494;51.796;10.952;2024-02-04T08:45:06;10.80;1.00
10883;DHT22;5494;51.796;10.952;2024-02-04T08:47:34;10.90;1.00
10883;DHT22;5494;51.796;10.952;2024-02-04T08:50:02;11.00;99.90
10883;DHT22;5494;51.796;10.952;2024-02-04T08:52:30;11.10;99.90
10883;DHT22;5494;51.796;10.952;2024-02-04T08:54:58;11.10;1.00
10883;DHT22;5494;51.796;10.952;2024-02-04T08:57:30;11.10;1.00
10883;DHT22;5494;51.796;10.952;2024-02-04T09:00:00;11.20;1.00
10883;DHT22;5494;51.796;10.952;2024-02-04T09:02:28;11.20;1.00
10883;DHT22;5494;51.796;10.952;2024-02-04T09:04:56;11.30;1.00
10883;DHT22;5494;51.796;10.952;2024-02-04T09:07:25;11.30;1.00
10883;DHT22;5494;51.796;10.952;2024-02-04T09:09:57;11.20;1.00
10883;DHT22;5494;51.796;10.952;2024-02-04T09:12:25;11.20;36.90
10883;DHT22;5494;51.796;10.952;2024-02-04T09:14:53;11.20;99.90
10883;DHT22;5494;51.796;10.952;2024-02-04T09:17:22;11.30;99.90
10883;DHT22;5494;51.796;10.952;2024-02-04T09:19:50;11.20;1.00
10883;DHT22;5494;51.796;10.952;2024-02-04T09:22:19;11.20;1.00
10883;DHT22;5494;51.796;10.952;2024-02-04T09:24:47;11.20;99.90
10883;DHT22;5494;51.796;10.952;2024-02-04T09:27:15;11.10;1.00
10883;DHT22;5494;51.796;10.952;2024-02-04T09:29:43;11.10;1.00
10883;DHT22;5494;51.796;10.952;2024-02-04T09:32:11;11.00;99.90
10883;DHT22;5494;51.796;10.952;2024-02-04T09:34:44;11.00;99.90
10883;DHT22;5494;51.796;10.952;2024-02-04T09:37:13;11.00;1.00
10883;DHT22;5494;51.796;10.952;2024-02-04T09:39:41;10.90;1.00
10883;DHT22;5494;51.796;10.952;2024-02-04T09:42:10;11.00;1.00
10883;DHT22;5494;51.796;10.952;2024-02-04T09:44:47;10.90;68.50
10883;DHT22;5494;51.796;10.952;2024-02-04T09:47:16;10.90;99.90
10883;DHT22;5494;51.796;10.952;2024-02-04T09:49:47;10.90;1.00
10883;DHT22;5494;51.796;10.952;2024-02-04T09:52:19;10.80;1.00
10883;DHT22;5494;51.796;10.952;2024-02-04T09:54:59;10.90;1.00
10883;DHT22;5494;51.796;10.952;2024-02-04T09:57:29;11.00;1.00
10883;DHT22;5494;51.796;10.952;2024-02-04T09:59:58;11.00;1.00
10883;DHT22;5494;51.796;10.952;2024-02-04T10:02:37;11.00;1.00
10883;DHT22;5494;51.796;10.952;2024-02-04T10:05:08;11.00;1.00
10883;DHT22;5494;51.796;10.952;2024-02-04T10:07:37;11.00;1.00
10883;DHT22;5494;51.796;10.952;2024-02-04T10:10:07;10.90;1.00
10883;DHT22;5494;51.796;10.952;2024-02-04T10:12:36;10.80;1.00
10883;DHT22;5494;51.796;10.952;2024-02-04T10:15:06;10.80;1.00
10883;DHT22;5494;51.796;10.952;2024-02-04T10:17:35;10.80;1.00
10883;DHT22;5494;51.796;10.952;2024-02-04T10:20:03;10.80;1.00
10883;DHT22;5494;51.796;10.952;2024-02-04T10:22:34;10.70;1.00
10883;DHT22;5494;51.796;10.952;2024-02-04T10:25:05;10.70;1.00
10883;DHT22;5494;51.796;10.952;2024-02-04T10:27:35;10.60;1.00
10883;DHT22;5494;51.796;10.952;2024-02-04T10:30:05;10.60;1.00
10883;DHT22;5494;51.796;10.952;2024-02-04T10:32:34;10.60;99.90
10883;DHT22;5494;51.796;10.952;2024-02-04T10:35:02;10.50;99.90
10883;DHT22;5494;51.796;10.952;2024-02-04T10:37:31;10.50;99.90
10883;DHT22;5494;51.796;10.952;2024-02-04T10:40:00;10.60;1.00
10883;DHT22;5494;51.796;10.952;2024-02-04T10:42:31;10.60;1.00
10883;DHT22;5494;51.796;10.952;2024-02-04T10:45:00;10.70;1.00
10883;DHT22;5494;51.796;10.952;2024-02-04T10:47:34;10.70;18.40
10883;DHT22;5494;51.796;10.952;2024-02-04T10:50:06;10.70;1.00
10883;DHT22;5494;51.796;10.952;2024-02-04T10:52:36;10.70;98.90
10883;DHT22;5494;51.796;10.952;2024-02-04T10:55:09;10.80;20.80
10883;DHT22;5494;51.796;10.952;2024-02-04T10:57:39;10.90;1.00
10883;DHT22;5494;51.796;10.952;2024-02-04T11:00:08;10.90;99.90
10883;DHT22;5494;51.796;10.952;2024-02-04T11:02:40;11.00;1.00
10883;DHT22;5494;51.796;10.952;2024-02-04T11:05:13;11.00;1.00
10883;DHT22;5494;51.796;10.952;2024-02-04T11:07:43;11.00;99.90
10883;DHT22;5494;51.796;10.952;2024-02-04T11:10:13;10.90;1.00
10883;DHT22;5494;51.796;10.952;2024-02-04T11:12:42;11.00;99.90
10883;DHT22;5494;51.796;10.952;2024-02-04T11:15:13;11.00;99.90
10883;DHT22;5494;51.796;10.952;2024-02-04T11:18:10;11.00;99.90
10883;DHT22;5494;51.796;10.952;2024-02-04T11:21:26;11.00;99.90
10883;DHT22;5494;51.796;10.952;2024-02-04T11:24:19;11.00;99.90
10883;DHT22;5494;51.796;10.952;2024-02-04T11:27:00;11.40;99.90
10883;DHT22;5494;51.796;10.952;2024-02-04T11:29:29;11.20;99.90
10883;DHT22;5494;51.796;10.952;2024-02-04T11:31:58;11.20;99.90
10883;DHT22;5494;51.796;10.952;2024-02-04T11:34:26;11.10;99.90
10883;DHT22;5494;51.796;10.952;2024-02-04T11:36:55;11.00;99.90
10883;DHT22;5494;51.796;10.952;2024-02-04T11:39:26;11.00;99.90
10883;DHT22;5494;51.796;10.952;2024-02-04T11:41:54;11.10;86.70
10883;DHT22;5494;51.796;10.952;2024-02-04T11:44:25;11.00;99.90
10883;DHT22;5494;51.796;10.952;2024-02-04T11:46:55;11.10;99.70
10883;DHT22;5494;51.796;10.952;2024-02-04T11:49:25;11.10;39.80
10883;DHT22;5494;51.796;10.952;2024-02-04T11:51:54;11.00;13.60
10883;DHT22;5494;51.796;10.952;2024-02-04T11:54:22;11.10;90.00
10883;DHT22;5494;51.796;10.952;2024-02-04T11:56:51;11.20;6.40
10883;DHT22;5494;51.796;10.952;2024-02-04T11:59:24;11.20;1.00
10883;DHT22;5494;51.796;10.952;2024-02-04T12:01:54;11.10;61.50
10883;DHT22;5494;51.796;10.952;2024-02-04T12:04:23;11.10;42.00
10883;DHT22;5494;51.796;10.952;2024-02-04T12:06:55;11.10;99.90
10883;DHT22;5494;51.796;10.952;2024-02-04T12:09:26;11.00;99.90
10883;DHT22;5494;51.796;10.952;2024-02-04T12:11:55;10.90;99.90
10883;DHT22;5494;51.796;10.952;2024-02-04T12:14:26;10.80;99.90
10883;DHT22;5494;51.796;10.952;2024-02-04T12:16:56;10.70;1.00
10883;DHT22;5494;51.796;10.952;2024-02-04T12:19:26;10.60;1.00
10883;DHT22;5494;51.796;10.952;2024-02-04T12:21:54;10.40;99.90
10883;DHT22;5494;51.796;10.952;2024-02-04T12:24:22;10.30;1.00
10883;DHT22;5494;51.796;10.952;2024-02-04T12:26:51;10.30;1.00
10883;DHT22;5494;51.796;10.952;2024-02-04T12:29:19;10.30;1.00
10883;DHT22;5494;51.796;10.952;2024-02-04T12:31:48;10.30;1.00
10883;DHT22;5494;51.796;10.952;2024-02-04T12:34:25;10.40;99.90
10883;DHT22;5494;51.796;10.952;2024-02-04T12:36:59;10.50;65.50
10883;DHT22;5494;51.796;10.952;2024-02-04T12:39:29;10.60;1.00
10883;DHT22;5494;51.796;10.952;2024-02-04T12:42:00;10.60;1.00
10883;DHT22;5494;51.796;10.952;2024-02-04T12:44:28;10.60;99.90
10883;DHT22;5494;51.796;10.952;2024-02-04T12:46:57;10.70;99.90
10883;DHT22;5494;51.796;10.952;2024-02-04T12:49:25;10.70;1.00
10883;DHT22;5494;51.796;10.952;2024-02-04T12:52:04;10.30;1.00
10883;DHT22;5494;51.796;10.952;2024-02-04T12:54:40;10.80;1.00
10883;DHT22;5494;51.796;10.952;2024-02-04T12:57:09;10.70;1.00
10883;DHT22;5494;51.796;10.952;2024-02-04T12:59:38;10.70;1.00
10883;DHT22;5494;51.796;10.952;2024-02-04T13:02:08;10.70;1.00
10883;DHT22;5494;51.796;10.952;2024-02-04T13:04:37;10.80;99.90
10883;DHT22;5494;51.796;10.952;2024-02-04T13:07:08;10.80;99.90
10883;DHT22;5494;51.796;10.952;2024-02-04T13:09:37;10.70;99.90
10883;DHT22;5494;51.796;10.952;2024-02-04T13:12:08;10.80;99.90
10883;DHT22;5494;51.796;10.952;2024-02-04T13:14:37;10.80;99.90
10883;DHT22;5494;51.796;10.952;2024-02-04T13:17:07;10.80;99.90
10883;DHT22;5494;51.796;10.952;2024-02-04T13:19:36;10.80;99.90
10883;DHT22;5494;51.796;10.952;2024-02-04T13:22:06;10.80;99.90
10883;DHT22;5494;51.796;10.952;2024-02-04T13:24:37;10.70;99.90
10883;DHT22;5494;51.796;10.952;2024-02-04T13:27:06;10.70;99.90
10883;DHT22;5494;51.796;10.952;2024-02-04T13:29:34;10.60;1.00
10883;DHT22;5494;51.796;10.952;2024-02-04T13:32:03;10.60;1.00
10883;DHT22;5494;51.796;10.952;2024-02-04T13:34:33;10.60;1.00
10883;DHT22;5494;51.796;10.952;2024-02-04T13:37:01;10.60;1.00
10883;DHT22;5494;51.796;10.952;2024-02-04T13:39:29;10.50;1.00
10883;DHT22;5494;51.796;10.952;2024-02-04T13:41:57;10.40;99.90
10883;DHT22;5494;51.796;10.952;2024-02-04T13:44:26;10.30;99.90
10883;DHT22;5494;51.796;10.952;2024-02-04T13:46:54;10.30;1.00
10883;DHT22;5494;51.796;10.952;2024-02-04T13:49:23;10.20;1.00
10883;DHT22;5494;51.796;10.952;2024-02-04T13:51:52;10.30;1.00
10883;DHT22;5494;51.796;10.952;2024-02-04T13:54:20;10.20;64.80
10883;DHT22;5494;51.796;10.952;2024-02-04T13:56:48;10.20;99.90
10883;DHT22;5494;51.796;10.952;2024-02-04T13:59:16;10.20;99.90
10883;DHT22;5494;51.796;10.952;2024-02-04T14:01:44;10.20;99.90
10883;DHT22;5494;51.796;10.952;2024-02-04T14:04:12;10.30;1.00
10883;DHT22;5494;51.796;10.952;2024-02-04T14:06:40;10.20;1.00
10883;DHT22;5494;51.796;10.952;2024-02-04T14:09:10;10.20;1.00
10883;DHT22;5494;51.796;10.952;2024-02-04T14:11:39;10.30;1.00
10883;DHT22;5494;51.796;10.952;2024-02-04T14:14:07;10.30;1.00
10883;DHT22;5494;51.796;10.952;2024-02-04T14:16:36;10.30;99.90
10883;DHT22;5494;51.796;10.952;2024-02-04T14:19:04;10.30;1.00
10883;DHT22;5494;51.796;10.952;2024-02-04T14:21:32;10.30;1.00
10883;DHT22;5494;51.796;10.952;2024-02-04T14:24:00;10.30;1.00
10883;DHT22;5494;51.796;10.952;2024-02-04T14:26:30;10.40;99.90
10883;DHT22;5494;51.796;10.952;2024-02-04T14:28:59;10.40;99.90
10883;DHT22;5494;51.796;10.952;2024-02-04T14:31:27;10.40;99.90
10883;DHT22;5494;51.796;10.952;2024-02-04T14:33:55;10.40;1.00
10883;DHT22;5494;51.796;10.952;2024-02-04T14:36:23;10.50;1.00
10883;DHT22;5494;51.796;10.952;2024-02-04T14:38:51;10.50;99.90
10883;DHT22;5494;51.796;10.952;2024-02-04T14:41:19;10.40;99.90
10883;DHT22;5494;51.796;10.952;2024-02-04T14:43:50;10.40;99.90
10883;DHT22;5494;51.796;10.952;2024-02-04T14:46:18;10.40;1.00
10883;DHT22;5494;51.796;10.952;2024-02-04T14:48:47;10.40;1.00
10883;DHT22;5494;51.796;10.952;2024-02-04T14:51:15;10.40;1.00
10883;DHT22;5494;51.796;10.952;2024-02-04T14:53:43;10.40;1.00
10883;DHT22;5494;51.796;10.952;2024-02-04T14:56:11;10.40;1.00
10883;DHT22;5494;51.796;10.952;2024-02-04T14:58:39;10.40;99.90
10883;DHT22;5494;51.796;10.952;2024-02-04T15:01:10;10.50;99.90
10883;DHT22;5494;51.796;10.952;2024-02-04T15:03:38;10.50;1.00
10883;DHT22;5494;51.796;10.952;2024-02-04T15:06:06;10.50;99.90
10883;DHT22;5494;51.796;10.952;2024-02-04T15:08:34;10.40;99.90
10883;DHT22;5494;51.796;10.952;2024-02-04T15:11:03;10.50;1.00
10883;DHT22;5494;51.796;10.952;2024-02-04T15:13:31;10.40;1.00
10883;DHT22;5494;51.796;10.952;2024-02-04T15:16:01;10.30;99.90
10883;DHT22;5494;51.796;10.952;2024-02-04T15:18:32;10.20;99.90
10883;DHT22;5494;51.796;10.952;2024-02-04T15:21:02;10.20;99.90
10883;DHT22;5494;51.796;10.952;2024-02-04T15:23:31;10.10;99.90
10883;DHT22;5494;51.796;10.952;2024-02-04T15:26:00;10.10;99.90
10883;DHT22;5494;51.796;10.952;2024-02-04T15:28:29;10.10;99.90
10883;DHT22;5494;51.796;10.952;2024-02-04T15:30:58;10.00;99.90
10883;DHT22;5494;51.796;10.952;2024-02-04T15:33:27;10.00;99.90
10883;DHT22;5494;51.796;10.952;2024-02-04T15:35:57;10.00;1.00
10883;DHT22;5494;51.796;10.952;2024-02-04T15:38:25;9.90;1.00
10883;DHT22;5494;51.796;10.952;2024-02-04T15:40:54;9.80;1.00
10883;DHT22;5494;51.796;10.952;2024-02-04T15:43:23;9.80;1.00
10883;DHT22;5494;51.796;10.952;2024-02-04T15:45:51;9.70;1.00
10883;DHT22;5494;51.796;10.952;2024-02-04T15:48:24;9.70;1.00
10883;DHT22;5494;51.796;10.952;2024-02-04T15:50:59;9.70;1.00
10883;DHT22;5494;51.796;10.952;2024-02-04T15:53:28;9.70;1.00
10883;DHT22;5494;51.796;10.952;2024-02-04T15:55:57;9.70;1.00